sensor_id;sensor_type;location;lat;lon;timestamp;P1;durP1;ratioP1;P2;durP2;ratioP2
26181;SDS011;13927;51.534;11.866;2023-06-22T00:01:54;17.80;;;16.20;;
26181;SDS011;13927;51.534;11.866;2023-06-22T00:04:21;20.13;;;18.23;;
26181;SDS011;13927;51.534;11.866;2023-06-22T00:06:50;20.55;;;18.65;;
26181;SDS011;13927;51.534;11.866;2023-06-22T00:09:18;18.95;;;17.05;;
26181;SDS011;13927;51.534;11.866;2023-06-22T00:11:48;18.33;;;16.63;;
26181;SDS011;13927;51.534;11.866;2023-06-22T00:14:15;20.52;;;18.63;;
26181;SDS011;13927;51.534;11.866;2023-06-22T00:16:41;18.75;;;17.05;;
26181;SDS011;13927;51.534;11.866;2023-06-22T00:19:08;21.42;;;19.33;;
26181;SDS011;13927;51.534;11.866;2023-06-22T00:21:37;23.35;;;21.27;;
26181;SDS011;13927;51.534;11.866;2023-06-22T00:24:04;23.77;;;21.67;;
26181;SDS011;13927;51.534;11.866;2023-06-22T00:26:34;25.35;;;23.05;;
26181;SDS011;13927;51.534;11.866;2023-06-22T00:29:00;25.10;;;22.73;;
26181;SDS011;13927;51.534;11.866;2023-06-22T00:31:27;23.65;;;21.45;;
26181;SDS011;13927;51.534;11.866;2023-06-22T00:33:54;23.25;;;21.15;;
26181;SDS011;13927;51.534;11.866;2023-06-22T00:36:20;17.98;;;16.33;;
26181;SDS011;13927;51.534;11.866;2023-06-22T00:38:46;16.55;;;15.05;;
26181;SDS011;13927;51.534;11.866;2023-06-22T00:41:14;17.80;;;16.17;;
26181;SDS011;13927;51.534;11.866;2023-06-22T00:43:40;18.27;;;16.58;;
26181;SDS011;13927;51.534;11.866;2023-06-22T00:46:12;19.52;;;17.63;;
26181;SDS011;13927;51.534;11.866;2023-06-22T00:48:47;18.40;;;16.75;;
26181;SDS011;13927;51.534;11.866;2023-06-22T00:51:15;19.92;;;18.23;;
26181;SDS011;13927;51.534;11.866;2023-06-22T00:53:49;17.42;;;15.82;;
26181;SDS011;13927;51.534;11.866;2023-06-22T00:56:16;21.52;;;19.52;;
26181;SDS011;13927;51.534;11.866;2023-06-22T00:58:45;20.90;;;19.00;;
26181;SDS011;13927;51.534;11.866;2023-06-22T01:01:14;23.35;;;21.25;;
26181;SDS011;13927;51.534;11.866;2023-06-22T01:03:57;24.13;;;21.77;;
26181;SDS011;13927;51.534;11.866;2023-06-22T01:06:29;25.83;;;23.23;;
26181;SDS011;13927;51.534;11.866;2023-06-22T01:09:44;22.48;;;20.38;;
26181;SDS011;13927;51.534;11.866;2023-06-22T01:13:10;24.27;;;21.95;;
26181;SDS011;13927;51.534;11.866;2023-06-22T01:15:42;24.85;;;22.55;;
26181;SDS011;13927;51.534;11.866;2023-06-22T01:18:29;22.80;;;20.60;;
26181;SDS011;13927;51.534;11.866;2023-06-22T01:20:58;24.55;;;22.15;;
26181;SDS011;13927;51.534;11.866;2023-06-22T01:24:38;23.30;;;21.20;;
26181;SDS011;13927;51.534;11.866;2023-06-22T01:30:35;22.02;;;19.77;;
26181;SDS011;13927;51.534;11.866;2023-06-22T01:33:04;19.63;;;17.80;;
26181;SDS011;13927;51.534;11.866;2023-06-22T01:35:31;22.55;;;20.50;;
26181;SDS011;13927;51.534;11.866;2023-06-22T01:37:59;18.95;;;17.23;;
26181;SDS011;13927;51.534;11.866;2023-06-22T01:40:27;22.27;;;20.27;;
26181;SDS011;13927;51.534;11.866;2023-06-22T01:42:55;21.52;;;19.55;;
26181;SDS011;13927;51.534;11.866;2023-06-22T01:45:22;21.50;;;19.60;;
26181;SDS011;13927;51.534;11.866;2023-06-22T01:47:53;18.92;;;17.23;;
26181;SDS011;13927;51.534;11.866;2023-06-22T01:50:20;16.10;;;14.68;;
26181;SDS011;13927;51.534;11.866;2023-06-22T01:52:46;18.25;;;16.50;;
26181;SDS011;13927;51.534;11.866;2023-06-22T01:55:20;19.00;;;17.33;;
26181;SDS011;13927;51.534;11.866;2023-06-22T01:57:52;20.73;;;18.92;;
26181;SDS011;13927;51.534;11.866;2023-06-22T02:00:28;23.25;;;20.92;;
26181;SDS011;13927;51.534;11.866;2023-06-22T02:03:10;23.35;;;21.15;;
26181;SDS011;13927;51.534;11.866;2023-06-22T02:06:04;25.80;;;23.40;;
26181;SDS011;13927;51.534;11.866;2023-06-22T02:08:49;27.50;;;24.80;;
26181;SDS011;13927;51.534;11.866;2023-06-22T02:11:24;25.67;;;23.27;;
26181;SDS011;13927;51.534;11.866;2023-06-22T02:13:57;26.58;;;23.00;;
26181;SDS011;13927;51.534;11.866;2023-06-22T02:16:24;25.45;;;23.05;;
26181;SDS011;13927;51.534;11.866;2023-06-22T02:19:00;27.05;;;24.40;;
26181;SDS011;13927;51.534;11.866;2023-06-22T02:21:34;26.70;;;24.00;;
26181;SDS011;13927;51.534;11.866;2023-06-22T02:24:00;26.02;;;23.50;;
26181;SDS011;13927;51.534;11.866;2023-06-22T02:26:26;25.02;;;22.83;;
26181;SDS011;13927;51.534;11.866;2023-06-22T02:28:52;25.42;;;23.13;;
26181;SDS011;13927;51.534;11.866;2023-06-22T02:31:20;21.85;;;19.77;;
26181;SDS011;13927;51.534;11.866;2023-06-22T02:33:47;24.00;;;21.80;;
26181;SDS011;13927;51.534;11.866;2023-06-22T02:36:15;19.92;;;18.15;;
26181;SDS011;13927;51.534;11.866;2023-06-22T02:38:49;21.75;;;19.63;;
26181;SDS011;13927;51.534;11.866;2023-06-22T02:41:20;23.83;;;21.63;;
26181;SDS011;13927;51.534;11.866;2023-06-22T02:43:47;23.98;;;21.52;;
26181;SDS011;13927;51.534;11.866;2023-06-22T02:46:20;24.35;;;22.00;;
26181;SDS011;13927;51.534;11.866;2023-06-22T02:48:48;23.88;;;21.67;;
26181;SDS011;13927;51.534;11.866;2023-06-22T02:51:18;22.48;;;20.30;;
26181;SDS011;13927;51.534;11.866;2023-06-22T02:53:56;19.52;;;17.77;;
26181;SDS011;13927;51.534;11.866;2023-06-22T02:56:30;21.88;;;19.75;;
26181;SDS011;13927;51.534;11.866;2023-06-22T02:58:58;20.73;;;18.75;;
26181;SDS011;13927;51.534;11.866;2023-06-22T03:01:27;23.48;;;21.20;;
26181;SDS011;13927;51.534;11.866;2023-06-22T03:04:09;24.75;;;22.45;;
26181;SDS011;13927;51.534;11.866;2023-06-22T03:06:39;22.60;;;20.47;;
26181;SDS011;13927;51.534;11.866;2023-06-22T03:09:18;25.13;;;22.52;;
26181;SDS011;13927;51.534;11.866;2023-06-22T03:11:47;23.38;;;21.08;;
26181;SDS011;13927;51.534;11.866;2023-06-22T03:14:16;18.50;;;16.70;;
26181;SDS011;13927;51.534;11.866;2023-06-22T03:16:47;20.45;;;17.52;;
26181;SDS011;13927;51.534;11.866;2023-06-22T03:19:19;18.85;;;16.85;;
26181;SDS011;13927;51.534;11.866;2023-06-22T03:21:47;20.48;;;18.27;;
26181;SDS011;13927;51.534;11.866;2023-06-22T03:24:16;26.27;;;21.48;;
26181;SDS011;13927;51.534;11.866;2023-06-22T03:26:47;30.17;;;22.65;;
26181;SDS011;13927;51.534;11.866;2023-06-22T03:29:26;24.58;;;21.83;;
26181;SDS011;13927;51.534;11.866;2023-06-22T03:32:16;24.90;;;22.33;;
26181;SDS011;13927;51.534;11.866;2023-06-22T03:34:47;26.85;;;24.05;;
26181;SDS011;13927;51.534;11.866;2023-06-22T03:37:25;25.08;;;22.63;;
26181;SDS011;13927;51.534;11.866;2023-06-22T03:40:12;25.55;;;22.90;;
26181;SDS011;13927;51.534;11.866;2023-06-22T03:43:01;25.55;;;23.15;;
26181;SDS011;13927;51.534;11.866;2023-06-22T03:45:42;24.05;;;21.60;;
26181;SDS011;13927;51.534;11.866;2023-06-22T03:48:13;24.50;;;22.15;;
26181;SDS011;13927;51.534;11.866;2023-06-22T03:50:49;23.25;;;18.85;;
26181;SDS011;13927;51.534;11.866;2023-06-22T03:53:19;23.38;;;19.27;;
26181;SDS011;13927;51.534;11.866;2023-06-22T03:56:02;21.85;;;19.35;;
26181;SDS011;13927;51.534;11.866;2023-06-22T03:58:37;22.77;;;18.95;;
26181;SDS011;13927;51.534;11.866;2023-06-22T04:01:11;21.63;;;18.80;;
26181;SDS011;13927;51.534;11.866;2023-06-22T04:03:45;25.85;;;19.67;;
26181;SDS011;13927;51.534;11.866;2023-06-22T04:06:15;24.17;;;21.02;;
26181;SDS011;13927;51.534;11.866;2023-06-22T04:08:49;32.03;;;22.77;;
26181;SDS011;13927;51.534;11.866;2023-06-22T04:11:50;28.40;;;24.90;;
26181;SDS011;13927;51.534;11.866;2023-06-22T04:16:58;26.80;;;23.80;;
26181;SDS011;13927;51.534;11.866;2023-06-22T04:19:29;27.42;;;24.25;;
26181;SDS011;13927;51.534;11.866;2023-06-22T04:21:58;28.08;;;25.15;;
26181;SDS011;13927;51.534;11.866;2023-06-22T04:24:29;26.40;;;23.75;;
26181;SDS011;13927;51.534;11.866;2023-06-22T04:26:57;27.13;;;24.33;;
26181;SDS011;13927;51.534;11.866;2023-06-22T04:29:34;26.90;;;24.30;;
26181;SDS011;13927;51.534;11.866;2023-06-22T04:32:17;29.08;;;24.20;;
26181;SDS011;13927;51.534;11.866;2023-06-22T04:34:46;26.27;;;23.65;;
26181;SDS011;13927;51.534;11.866;2023-06-22T04:37:17;28.20;;;25.40;;
26181;SDS011;13927;51.534;11.866;2023-06-22T04:39:49;25.33;;;22.77;;
26181;SDS011;13927;51.534;11.866;2023-06-22T04:42:20;24.85;;;22.48;;
26181;SDS011;13927;51.534;11.866;2023-06-22T04:44:53;24.98;;;21.48;;
26181;SDS011;13927;51.534;11.866;2023-06-22T04:47:23;25.83;;;23.23;;
26181;SDS011;13927;51.534;11.866;2023-06-22T04:49:55;25.88;;;23.27;;
26181;SDS011;13927;51.534;11.866;2023-06-22T04:52:25;25.48;;;22.92;;
26181;SDS011;13927;51.534;11.866;2023-06-22T04:54:55;25.52;;;23.13;;
26181;SDS011;13927;51.534;11.866;2023-06-22T04:57:29;23.25;;;21.02;;
26181;SDS011;13927;51.534;11.866;2023-06-22T05:00:11;23.95;;;21.60;;
26181;SDS011;13927;51.534;11.866;2023-06-22T05:02:45;28.45;;;23.45;;
26181;SDS011;13927;51.534;11.866;2023-06-22T05:05:17;25.10;;;22.60;;
26181;SDS011;13927;51.534;11.866;2023-06-22T05:08:11;25.30;;;22.85;;
26181;SDS011;13927;51.534;11.866;2023-06-22T05:10:52;23.65;;;21.10;;
26181;SDS011;13927;51.534;11.866;2023-06-22T05:13:34;22.52;;;20.23;;
26181;SDS011;13927;51.534;11.866;2023-06-22T05:16:03;22.05;;;19.77;;
26181;SDS011;13927;51.534;11.866;2023-06-22T05:18:32;19.98;;;17.98;;
26181;SDS011;13927;51.534;11.866;2023-06-22T05:21:07;19.83;;;17.67;;
26181;SDS011;13927;51.534;11.866;2023-06-22T05:23:34;19.35;;;17.15;;
26181;SDS011;13927;51.534;11.866;2023-06-22T05:26:03;22.83;;;18.10;;
26181;SDS011;13927;51.534;11.866;2023-06-22T05:28:37;18.77;;;16.77;;
26181;SDS011;13927;51.534;11.866;2023-06-22T05:31:17;20.17;;;17.23;;
26181;SDS011;13927;51.534;11.866;2023-06-22T05:33:51;21.15;;;16.10;;
26181;SDS011;13927;51.534;11.866;2023-06-22T05:36:19;19.92;;;17.23;;
26181;SDS011;13927;51.534;11.866;2023-06-22T05:38:51;18.63;;;16.48;;
26181;SDS011;13927;51.534;11.866;2023-06-22T05:41:24;22.05;;;18.73;;
26181;SDS011;13927;51.534;11.866;2023-06-22T05:44:29;18.83;;;16.88;;
26181;SDS011;13927;51.534;11.866;2023-06-22T05:52:52;23.13;;;17.63;;
26181;SDS011;13927;51.534;11.866;2023-06-22T05:55:21;19.20;;;16.50;;
26181;SDS011;13927;51.534;11.866;2023-06-22T05:58:15;19.90;;;17.92;;
26181;SDS011;13927;51.534;11.866;2023-06-22T06:00:55;19.27;;;17.35;;
26181;SDS011;13927;51.534;11.866;2023-06-22T06:03:21;18.30;;;16.55;;
26181;SDS011;13927;51.534;11.866;2023-06-22T06:05:47;18.80;;;17.10;;
26181;SDS011;13927;51.534;11.866;2023-06-22T06:08:14;19.70;;;17.65;;
26181;SDS011;13927;51.534;11.866;2023-06-22T06:10:40;17.40;;;15.70;;
26181;SDS011;13927;51.534;11.866;2023-06-22T06:13:06;19.08;;;16.48;;
26181;SDS011;13927;51.534;11.866;2023-06-22T06:15:33;18.88;;;16.67;;
26181;SDS011;13927;51.534;11.866;2023-06-22T06:18:00;18.50;;;16.55;;
26181;SDS011;13927;51.534;11.866;2023-06-22T06:20:29;18.50;;;16.70;;
26181;SDS011;13927;51.534;11.866;2023-06-22T06:22:55;19.45;;;17.45;;
26181;SDS011;13927;51.534;11.866;2023-06-22T06:25:23;19.77;;;17.40;;
26181;SDS011;13927;51.534;11.866;2023-06-22T06:27:51;17.42;;;15.57;;
26181;SDS011;13927;51.534;11.866;2023-06-22T06:30:19;17.17;;;15.63;;
26181;SDS011;13927;51.534;11.866;2023-06-22T06:32:47;17.02;;;15.35;;
26181;SDS011;13927;51.534;11.866;2023-06-22T06:35:15;17.05;;;15.32;;
26181;SDS011;13927;51.534;11.866;2023-06-22T06:37:42;19.35;;;15.73;;
26181;SDS011;13927;51.534;11.866;2023-06-22T06:40:14;17.95;;;14.80;;
26181;SDS011;13927;51.534;11.866;2023-06-22T06:42:42;17.48;;;14.30;;
26181;SDS011;13927;51.534;11.866;2023-06-22T06:45:20;16.48;;;14.80;;
26181;SDS011;13927;51.534;11.866;2023-06-22T06:47:48;16.25;;;14.52;;
26181;SDS011;13927;51.534;11.866;2023-06-22T06:50:17;17.20;;;15.60;;
26181;SDS011;13927;51.534;11.866;2023-06-22T06:52:44;16.38;;;14.15;;
26181;SDS011;13927;51.534;11.866;2023-06-22T06:55:11;15.73;;;14.05;;
26181;SDS011;13927;51.534;11.866;2023-06-22T06:57:39;15.82;;;14.32;;
26181;SDS011;13927;51.534;11.866;2023-06-22T07:00:10;14.70;;;13.30;;
26181;SDS011;13927;51.534;11.866;2023-06-22T07:02:39;15.15;;;13.75;;
26181;SDS011;13927;51.534;11.866;2023-06-22T07:05:08;15.38;;;13.85;;
26181;SDS011;13927;51.534;11.866;2023-06-22T07:07:35;19.45;;;13.93;;
26181;SDS011;13927;51.534;11.866;2023-06-22T07:10:02;16.27;;;14.60;;
26181;SDS011;13927;51.534;11.866;2023-06-22T07:12:30;16.10;;;14.15;;
26181;SDS011;13927;51.534;11.866;2023-06-22T07:15:06;15.77;;;14.15;;
26181;SDS011;13927;51.534;11.866;2023-06-22T07:17:34;15.80;;;14.13;;
26181;SDS011;13927;51.534;11.866;2023-06-22T07:20:02;15.23;;;13.82;;
26181;SDS011;13927;51.534;11.866;2023-06-22T07:22:35;13.95;;;12.65;;
26181;SDS011;13927;51.534;11.866;2023-06-22T07:25:02;14.93;;;13.45;;
26181;SDS011;13927;51.534;11.866;2023-06-22T07:27:34;15.23;;;13.73;;
26181;SDS011;13927;51.534;11.866;2023-06-22T07:30:09;15.80;;;14.20;;
26181;SDS011;13927;51.534;11.866;2023-06-22T07:32:36;16.38;;;14.75;;
26181;SDS011;13927;51.534;11.866;2023-06-22T07:35:03;14.65;;;13.23;;
26181;SDS011;13927;51.534;11.866;2023-06-22T07:37:30;14.30;;;12.90;;
26181;SDS011;13927;51.534;11.866;2023-06-22T07:39:58;13.80;;;12.52;;
26181;SDS011;13927;51.534;11.866;2023-06-22T07:42:24;16.02;;;13.80;;
26181;SDS011;13927;51.534;11.866;2023-06-22T07:44:52;14.20;;;12.88;;
26181;SDS011;13927;51.534;11.866;2023-06-22T07:47:19;14.57;;;13.13;;
26181;SDS011;13927;51.534;11.866;2023-06-22T07:49:50;15.25;;;12.73;;
26181;SDS011;13927;51.534;11.866;2023-06-22T07:52:17;13.27;;;12.18;;
26181;SDS011;13927;51.534;11.866;2023-06-22T07:54:43;13.85;;;12.63;;
26181;SDS011;13927;51.534;11.866;2023-06-22T07:57:09;13.15;;;11.95;;
26181;SDS011;13927;51.534;11.866;2023-06-22T07:59:36;15.80;;;12.73;;
26181;SDS011;13927;51.534;11.866;2023-06-22T08:02:03;15.00;;;13.40;;
26181;SDS011;13927;51.534;11.866;2023-06-22T08:04:30;14.23;;;12.98;;
26181;SDS011;13927;51.534;11.866;2023-06-22T08:06:59;14.88;;;13.43;;
26181;SDS011;13927;51.534;11.866;2023-06-22T08:09:32;13.18;;;11.98;;
26181;SDS011;13927;51.534;11.866;2023-06-22T08:11:59;14.40;;;13.02;;
26181;SDS011;13927;51.534;11.866;2023-06-22T08:14:26;13.23;;;11.93;;
26181;SDS011;13927;51.534;11.866;2023-06-22T08:16:54;12.60;;;11.50;;
26181;SDS011;13927;51.534;11.866;2023-06-22T08:19:21;14.88;;;11.82;;
26181;SDS011;13927;51.534;11.866;2023-06-22T08:21:49;13.50;;;12.30;;
26181;SDS011;13927;51.534;11.866;2023-06-22T08:24:16;13.40;;;12.10;;
26181;SDS011;13927;51.534;11.866;2023-06-22T08:26:43;13.13;;;11.93;;
26181;SDS011;13927;51.534;11.866;2023-06-22T08:29:10;13.63;;;12.30;;
26181;SDS011;13927;51.534;11.866;2023-06-22T08:31:36;14.27;;;12.98;;
26181;SDS011;13927;51.534;11.866;2023-06-22T08:34:02;14.10;;;12.80;;
26181;SDS011;13927;51.534;11.866;2023-06-22T08:36:30;14.43;;;13.10;;
26181;SDS011;13927;51.534;11.866;2023-06-22T08:39:06;13.18;;;11.95;;
26181;SDS011;13927;51.534;11.866;2023-06-22T08:41:33;13.95;;;12.45;;
26181;SDS011;13927;51.534;11.866;2023-06-22T08:44:00;12.50;;;11.50;;
26181;SDS011;13927;51.534;11.866;2023-06-22T08:46:29;13.95;;;12.65;;
26181;SDS011;13927;51.534;11.866;2023-06-22T08:48:58;13.32;;;12.10;;
26181;SDS011;13927;51.534;11.866;2023-06-22T08:51:25;12.23;;;11.13;;
26181;SDS011;13927;51.534;11.866;2023-06-22T08:53:52;12.75;;;11.45;;
26181;SDS011;13927;51.534;11.866;2023-06-22T08:56:19;12.10;;;11.05;;
26181;SDS011;13927;51.534;11.866;2023-06-22T08:58:45;12.70;;;11.50;;
26181;SDS011;13927;51.534;11.866;2023-06-22T09:01:11;13.35;;;11.95;;
26181;SDS011;13927;51.534;11.866;2023-06-22T09:03:38;12.32;;;11.23;;
26181;SDS011;13927;51.534;11.866;2023-06-22T09:06:04;12.25;;;11.05;;
26181;SDS011;13927;51.534;11.866;2023-06-22T09:08:31;12.90;;;11.25;;
26181;SDS011;13927;51.534;11.866;2023-06-22T09:10:57;12.20;;;10.88;;
26181;SDS011;13927;51.534;11.866;2023-06-22T09:13:24;11.98;;;10.90;;
26181;SDS011;13927;51.534;11.866;2023-06-22T09:15:51;12.38;;;11.27;;
26181;SDS011;13927;51.534;11.866;2023-06-22T09:18:18;12.23;;;11.13;;
26181;SDS011;13927;51.534;11.866;2023-06-22T09:20:45;10.98;;;9.95;;
26181;SDS011;13927;51.534;11.866;2023-06-22T09:23:11;11.20;;;10.15;;
26181;SDS011;13927;51.534;11.866;2023-06-22T09:25:37;10.20;;;9.30;;
26181;SDS011;13927;51.534;11.866;2023-06-22T09:28:03;10.00;;;8.98;;
26181;SDS011;13927;51.534;11.866;2023-06-22T09:30:29;11.63;;;10.52;;
26181;SDS011;13927;51.534;11.866;2023-06-22T09:32:55;9.63;;;8.68;;
26181;SDS011;13927;51.534;11.866;2023-06-22T09:35:22;9.65;;;8.75;;
26181;SDS011;13927;51.534;11.866;2023-06-22T09:37:48;10.30;;;9.48;;
26181;SDS011;13927;51.534;11.866;2023-06-22T09:40:14;11.00;;;9.90;;
26181;SDS011;13927;51.534;11.866;2023-06-22T09:42:42;11.68;;;10.68;;
26181;SDS011;13927;51.534;11.866;2023-06-22T09:45:08;11.02;;;10.00;;
26181;SDS011;13927;51.534;11.866;2023-06-22T09:47:35;9.80;;;8.90;;
26181;SDS011;13927;51.534;11.866;2023-06-22T09:50:01;10.68;;;9.77;;
26181;SDS011;13927;51.534;11.866;2023-06-22T09:52:27;10.70;;;9.80;;
26181;SDS011;13927;51.534;11.866;2023-06-22T09:54:53;10.07;;;8.80;;
26181;SDS011;13927;51.534;11.866;2023-06-22T09:57:19;9.65;;;8.73;;
26181;SDS011;13927;51.534;11.866;2023-06-22T09:59:45;9.63;;;8.68;;
26181;SDS011;13927;51.534;11.866;2023-06-22T10:02:12;9.85;;;9.02;;
26181;SDS011;13927;51.534;11.866;2023-06-22T10:04:38;10.55;;;9.55;;
26181;SDS011;13927;51.534;11.866;2023-06-22T10:07:05;8.90;;;8.07;;
26181;SDS011;13927;51.534;11.866;2023-06-22T10:09:31;10.00;;;9.10;;
26181;SDS011;13927;51.534;11.866;2023-06-22T10:11:58;10.05;;;9.15;;
26181;SDS011;13927;51.534;11.866;2023-06-22T10:14:24;9.50;;;8.60;;
26181;SDS011;13927;51.534;11.866;2023-06-22T10:16:52;10.55;;;9.65;;
26181;SDS011;13927;51.534;11.866;2023-06-22T10:19:18;10.05;;;9.15;;
26181;SDS011;13927;51.534;11.866;2023-06-22T10:21:44;10.50;;;9.32;;
26181;SDS011;13927;51.534;11.866;2023-06-22T10:24:11;10.02;;;9.00;;
26181;SDS011;13927;51.534;11.866;2023-06-22T10:26:37;9.48;;;8.68;;
26181;SDS011;13927;51.534;11.866;2023-06-22T10:29:04;9.98;;;8.98;;
26181;SDS011;13927;51.534;11.866;2023-06-22T10:31:30;9.48;;;8.68;;
26181;SDS011;13927;51.534;11.866;2023-06-22T10:33:56;8.77;;;7.90;;
26181;SDS011;13927;51.534;11.866;2023-06-22T10:36:23;8.98;;;8.27;;
26181;SDS011;13927;51.534;11.866;2023-06-22T10:38:49;8.98;;;8.05;;
26181;SDS011;13927;51.534;11.866;2023-06-22T10:41:15;8.50;;;7.78;;
26181;SDS011;13927;51.534;11.866;2023-06-22T10:43:42;9.88;;;8.98;;
26181;SDS011;13927;51.534;11.866;2023-06-22T10:46:08;8.70;;;7.93;;
26181;SDS011;13927;51.534;11.866;2023-06-22T10:48:35;9.50;;;8.10;;
26181;SDS011;13927;51.534;11.866;2023-06-22T10:51:01;8.70;;;7.97;;
26181;SDS011;13927;51.534;11.866;2023-06-22T10:53:27;9.57;;;8.30;;
26181;SDS011;13927;51.534;11.866;2023-06-22T10:55:53;8.25;;;7.55;;
26181;SDS011;13927;51.534;11.866;2023-06-22T10:58:19;8.55;;;7.75;;
26181;SDS011;13927;51.534;11.866;2023-06-22T11:00:45;9.23;;;8.38;;
26181;SDS011;13927;51.534;11.866;2023-06-22T11:03:11;8.80;;;7.90;;
26181;SDS011;13927;51.534;11.866;2023-06-22T11:05:39;9.77;;;7.97;;
26181;SDS011;13927;51.534;11.866;2023-06-22T11:08:05;7.85;;;7.13;;
26181;SDS011;13927;51.534;11.866;2023-06-22T11:10:31;8.13;;;7.43;;
26181;SDS011;13927;51.534;11.866;2023-06-22T11:12:57;8.10;;;7.28;;
26181;SDS011;13927;51.534;11.866;2023-06-22T11:15:24;8.65;;;7.68;;
26181;SDS011;13927;51.534;11.866;2023-06-22T11:17:50;7.78;;;7.00;;
26181;SDS011;13927;51.534;11.866;2023-06-22T11:20:16;7.80;;;7.00;;
26181;SDS011;13927;51.534;11.866;2023-06-22T11:22:42;7.72;;;6.93;;
26181;SDS011;13927;51.534;11.866;2023-06-22T11:25:08;8.07;;;7.28;;
26181;SDS011;13927;51.534;11.866;2023-06-22T11:27:34;7.95;;;6.85;;
26181;SDS011;13927;51.534;11.866;2023-06-22T11:30:00;6.60;;;6.00;;
26181;SDS011;13927;51.534;11.866;2023-06-22T11:32:27;7.07;;;6.45;;
26181;SDS011;13927;51.534;11.866;2023-06-22T11:34:53;7.55;;;6.22;;
26181;SDS011;13927;51.534;11.866;2023-06-22T11:37:19;7.50;;;6.80;;
26181;SDS011;13927;51.534;11.866;2023-06-22T11:39:45;8.32;;;6.45;;
26181;SDS011;13927;51.534;11.866;2023-06-22T11:42:11;6.97;;;6.22;;
26181;SDS011;13927;51.534;11.866;2023-06-22T11:44:37;7.07;;;6.18;;
26181;SDS011;13927;51.534;11.866;2023-06-22T11:47:03;7.65;;;6.95;;
26181;SDS011;13927;51.534;11.866;2023-06-22T11:49:31;6.97;;;6.32;;
26181;SDS011;13927;51.534;11.866;2023-06-22T11:51:57;7.32;;;6.53;;
26181;SDS011;13927;51.534;11.866;2023-06-22T11:54:23;7.07;;;6.47;;
26181;SDS011;13927;51.534;11.866;2023-06-22T11:56:49;6.65;;;6.05;;
26181;SDS011;13927;51.534;11.866;2023-06-22T11:59:15;6.75;;;6.03;;
26181;SDS011;13927;51.534;11.866;2023-06-22T12:01:40;7.18;;;6.47;;
26181;SDS011;13927;51.534;11.866;2023-06-22T12:04:06;7.00;;;6.30;;
26181;SDS011;13927;51.534;11.866;2023-06-22T12:06:38;7.28;;;6.57;;
26181;SDS011;13927;51.534;11.866;2023-06-22T12:09:07;7.30;;;6.70;;
26181;SDS011;13927;51.534;11.866;2023-06-22T12:11:33;7.95;;;7.25;;
26181;SDS011;13927;51.534;11.866;2023-06-22T12:13:59;7.65;;;6.95;;
26181;SDS011;13927;51.534;11.866;2023-06-22T12:16:27;9.27;;;7.38;;
26181;SDS011;13927;51.534;11.866;2023-06-22T12:18:54;7.60;;;6.80;;
26181;SDS011;13927;51.534;11.866;2023-06-22T12:21:20;9.75;;;6.90;;
26181;SDS011;13927;51.534;11.866;2023-06-22T12:23:46;8.30;;;7.50;;
26181;SDS011;13927;51.534;11.866;2023-06-22T12:26:12;7.80;;;6.95;;
26181;SDS011;13927;51.534;11.866;2023-06-22T12:28:38;8.20;;;7.45;;
26181;SDS011;13927;51.534;11.866;2023-06-22T12:31:04;8.10;;;7.40;;
26181;SDS011;13927;51.534;11.866;2023-06-22T12:33:30;7.65;;;6.32;;
26181;SDS011;13927;51.534;11.866;2023-06-22T12:35:56;8.23;;;7.35;;
26181;SDS011;13927;51.534;11.866;2023-06-22T12:38:22;8.05;;;7.10;;
26181;SDS011;13927;51.534;11.866;2023-06-22T12:40:50;8.05;;;7.35;;
26181;SDS011;13927;51.534;11.866;2023-06-22T12:43:16;8.73;;;7.93;;
26181;SDS011;13927;51.534;11.866;2023-06-22T12:45:42;8.32;;;7.50;;
26181;SDS011;13927;51.534;11.866;2023-06-22T12:48:08;8.43;;;7.47;;
26181;SDS011;13927;51.534;11.866;2023-06-22T12:50:34;8.32;;;7.63;;
26181;SDS011;13927;51.534;11.866;2023-06-22T12:53:00;8.57;;;7.82;;
26181;SDS011;13927;51.534;11.866;2023-06-22T12:55:28;7.82;;;7.05;;
26181;SDS011;13927;51.534;11.866;2023-06-22T12:57:53;8.65;;;7.28;;
26181;SDS011;13927;51.534;11.866;2023-06-22T13:00:20;8.05;;;7.28;;
26181;SDS011;13927;51.534;11.866;2023-06-22T13:02:46;8.48;;;7.68;;
26181;SDS011;13927;51.534;11.866;2023-06-22T13:05:11;8.40;;;7.30;;
26181;SDS011;13927;51.534;11.866;2023-06-22T13:07:38;8.38;;;7.50;;
26181;SDS011;13927;51.534;11.866;2023-06-22T13:10:04;8.32;;;7.10;;
26181;SDS011;13927;51.534;11.866;2023-06-22T13:12:31;7.70;;;7.00;;
26181;SDS011;13927;51.534;11.866;2023-06-22T13:14:57;8.00;;;7.20;;
26181;SDS011;13927;51.534;11.866;2023-06-22T13:17:22;8.02;;;7.32;;
26181;SDS011;13927;51.534;11.866;2023-06-22T13:19:49;8.65;;;7.78;;
26181;SDS011;13927;51.534;11.866;2023-06-22T13:24:57;7.70;;;7.00;;
26181;SDS011;13927;51.534;11.866;2023-06-22T13:27:24;10.93;;;7.13;;
26181;SDS011;13927;51.534;11.866;2023-06-22T13:29:50;8.02;;;7.30;;
26181;SDS011;13927;51.534;11.866;2023-06-22T13:32:17;8.20;;;7.07;;
26181;SDS011;13927;51.534;11.866;2023-06-22T13:34:44;8.13;;;7.40;;
26181;SDS011;13927;51.534;11.866;2023-06-22T13:37:10;8.35;;;7.32;;
26181;SDS011;13927;51.534;11.866;2023-06-22T13:39:36;8.10;;;7.40;;
26181;SDS011;13927;51.534;11.866;2023-06-22T13:42:01;8.18;;;7.32;;
26181;SDS011;13927;51.534;11.866;2023-06-22T13:44:27;9.50;;;7.70;;
26181;SDS011;13927;51.534;11.866;2023-06-22T13:46:57;8.35;;;7.55;;
26181;SDS011;13927;51.534;11.866;2023-06-22T13:49:23;8.07;;;7.30;;
26181;SDS011;13927;51.534;11.866;2023-06-22T13:51:49;8.23;;;7.13;;
26181;SDS011;13927;51.534;11.866;2023-06-22T13:54:15;10.02;;;7.82;;
26181;SDS011;13927;51.534;11.866;2023-06-22T13:56:42;8.10;;;7.30;;
26181;SDS011;13927;51.534;11.866;2023-06-22T13:59:08;7.85;;;7.10;;
26181;SDS011;13927;51.534;11.866;2023-06-22T14:01:35;7.70;;;6.97;;
26181;SDS011;13927;51.534;11.866;2023-06-22T14:04:02;8.25;;;7.50;;
26181;SDS011;13927;51.534;11.866;2023-06-22T14:06:28;9.57;;;7.30;;
26181;SDS011;13927;51.534;11.866;2023-06-22T14:08:54;9.25;;;6.97;;
26181;SDS011;13927;51.534;11.866;2023-06-22T14:11:20;11.40;;;7.78;;
26181;SDS011;13927;51.534;11.866;2023-06-22T14:13:45;8.30;;;7.47;;
26181;SDS011;13927;51.534;11.866;2023-06-22T14:16:12;8.27;;;7.53;;
26181;SDS011;13927;51.534;11.866;2023-06-22T14:18:38;7.57;;;6.88;;
26181;SDS011;13927;51.534;11.866;2023-06-22T14:21:03;8.60;;;7.57;;
26181;SDS011;13927;51.534;11.866;2023-06-22T14:23:29;7.70;;;7.00;;
26181;SDS011;13927;51.534;11.866;2023-06-22T14:25:55;8.00;;;6.82;;
26181;SDS011;13927;51.534;11.866;2023-06-22T14:28:21;7.85;;;7.15;;
26181;SDS011;13927;51.534;11.866;2023-06-22T14:30:47;8.60;;;7.65;;
26181;SDS011;13927;51.534;11.866;2023-06-22T14:33:13;9.55;;;7.57;;
26181;SDS011;13927;51.534;11.866;2023-06-22T14:35:39;8.77;;;7.88;;
26181;SDS011;13927;51.534;11.866;2023-06-22T14:38:06;8.60;;;7.80;;
26181;SDS011;13927;51.534;11.866;2023-06-22T14:40:32;10.90;;;7.38;;
26181;SDS011;13927;51.534;11.866;2023-06-22T14:42:58;8.45;;;7.60;;
26181;SDS011;13927;51.534;11.866;2023-06-22T14:45:25;9.32;;;8.43;;
26181;SDS011;13927;51.534;11.866;2023-06-22T14:47:51;8.85;;;7.75;;